METAR Data
IDs: Format: Raw Decoded Include TAF

Data at: 1156 UTC 16 Oct 2018

PABA 161152Z AUTO 09028G34KT 10SM OVC010 M03/M04 A2984 RMK AO2 PK WND 08036/1129 SLP089 60000 T10331044 11033 21050 58034 FZRANO TSNO
PABA 161052Z AUTO 09029G33KT 10SM OVC010 M03/M04 A2987 RMK AO2 PK WND 09034/1032 SLP102 T10331044 FZRANO TSNO
PABA 160952Z AUTO 09027G32KT 10SM OVC010 M04/M05 A2991 RMK AO2 PK WND 09033/0914 SLP113 T10391050 FZRANO TSNO
PABA 160943Z AUTO 09024KT 10SM OVC010 M04/M05 A2992 RMK AO2 PK WND 09033/0914 FZRANO TSNO
PABA 160852Z AUTO 09027KT 10SM OVC008 M04/M05 A2994 RMK AO2 PK WND 09029/0852 SNB0756E06 SLP123 P0000 60000 T10441050 410391106 58025 FZRANO TSNO
PABA 160752Z AUTO 09025G28KT 10SM OVC006 M04/M06 A2996 RMK AO2 PK WND 09029/0740 SNB21E31 SLP132 P0000 T10441056 FZRANO TSNO
PABA 160652Z AUTO 09022KT 10SM OVC006 M05/M06 A2999 RMK AO2 PK WND 09027/0637 SNB22E32 CIG 005V010 SLP140 P0000 T10501056 FZRANO TSNO
PABA 160552Z AUTO 09020G25KT 10SM OVC006 M05/M06 A3001 RMK AO2 PK WND 10027/0525 SLP148 60000 T10501056 11039 21050 58020 FZRANO TSNO
PABA 160452Z AUTO 09022KT 9SM OVC006 M05/M06 A3004 RMK AO2 PK WND 10027/0425 SNB22E35 CIG 004V010 SLP157 P0000 T10501056 FZRANO TSNO
PABA 160352Z AUTO 10021KT 10SM OVC006 M05/M06 A3004 RMK AO2 PK WND 09027/0317 SNB03E14 CIG 004V008 SLP159 P0000 T10501056 FZRANO TSNO
PABA 160252Z AUTO 10018KT 10SM OVC006 M04/M05 A3007 RMK AO2 UPE0154SNB05E15 CIG 005V009 SLP168 P0000 60000 T10441050 58013 FZRANO TSNO
PABA 160152Z AUTO 10019KT 9SM UP OVC006 M04/M05 A3009 RMK AO2 UPB18E20B49SNB0059E18B20E49 CIG 005V010 SLP174 P0000 T10441050 FZRANO TSNO
PABA 160052Z AUTO 10015KT 10SM OVC006 M04/M05 A3010 RMK AO2 SNE12 CIG 004V009 SLP177 P0000 T10441050 FZRANO TSNO
PABA 152352Z AUTO 09009KT 10SM -SN OVC006 M05/M06 A3011 RMK AO2 UPE2257B19E52SNB2257E19B25E34B52 CIG 003V008 SLP181 P0000 60000 T10501056 11050 21078 58007 FZRANO TSNO
PABA 152345Z AUTO 09009KT 8SM UP SCT004 OVC007 M05/M06 A3011 RMK AO2 UPE2257B19SNB2257E19B25E34 P0000 FZRANO TSNO
PABA 152336Z AUTO 10008KT 4SM UP BR OVC004 M05/M06 A3011 RMK AO2 UPE2257B19SNB2257E19B25E34 CIG 002V008 P0000 FZRANO TSNO
PABA 152331Z AUTO 10008KT 2SM -SN BR OVC002 M05/M06 A3011 RMK AO2 UPE2257B19E25SNB2257E19B25 P0000 FZRANO TSNO
PABA 152252Z AUTO 09007KT 1 1/4SM UP BR OVC002 M06/M06 A3012 RMK AO2 UPB25SNB13E25B30E39 SLP184 P0000 T10561061 FZRANO TSNO
PABA 152248Z AUTO 08007KT 1SM UP BR OVC002 M06/M07 A3012 RMK AO2 UPB25SNB13E25B30E39 P0000 FZRANO TSNO
PABA 152235Z AUTO 09008KT 3/4SM -SN BR OVC002 M06/M07 A3012 RMK AO2 UPB25E30SNB13E25B30 P0000 FZRANO TSNO
PABA 152229Z AUTO 09007KT 1SM UP BR OVC002 M07/M07 A3012 RMK AO2 UPB25SNB13E25 P0000 FZRANO TSNO
PABA 152224Z AUTO 09007KT 3/4SM -SN BR OVC002 M07/M07 A3012 RMK AO2 SNB13 P0000 FZRANO TSNO
PABA 152218Z AUTO 08007KT 1/2SM -SN FZFG OVC002 M07/M07 A3012 RMK AO2 SNB13 P0000 FZRANO TSNO
PABA 152213Z AUTO 08008KT 3/4SM -SN BR OVC002 M07/M08 A3012 RMK AO2 SNB13 P0000 FZRANO TSNO
PABA 152158Z AUTO 08006KT 1 1/2SM BR BKN002 M07/M08 A3013 RMK AO2 FZRANO TSNO
PABA 152152Z AUTO 08006KT 2 1/2SM BR BKN002 M07/M08 A3013 RMK AO2 VIS 1 1/2V4 SLP187 T10721083 FZRANO TSNO
PABA 152052Z AUTO 10006KT 10SM FEW007 M07/M08 A3013 RMK AO2 SLP188 T10721083 53002 FZRANO TSNO
PABA 152012Z AUTO 13004KT 4SM BR SCT004 M07/M08 A3013 RMK AO2 FZRANO TSNO
PABA 151952Z AUTO 11003KT 2SM BR BKN004 OVC007 M07/M08 A3012 RMK AO2 CIG 002V006 SLP185 T10721083 FZRANO TSNO
PABA 151949Z AUTO 10004KT 2SM BR BKN004 OVC007 M07/M08 A3012 RMK AO2 CIG 002V006 FZRANO TSNO
PABA 151929Z AUTO 11004KT 1 1/2SM BR BKN002 BKN007 M07/M08 A3012 RMK AO2 FZRANO TSNO
PABA 151926Z AUTO 12003KT 2SM BR BKN002 BKN007 M08/M09 A3012 RMK AO2 FZRANO TSNO
PABA 151923Z AUTO 12003KT 2 1/2SM BR SCT002 BKN007 M08/M09 A3012 RMK AO2 FZRANO TSNO
PABA 151909Z AUTO 09004KT 4SM BR SCT002 M07/M08 A3012 RMK AO2 FZRANO TSNO
PABA 151859Z AUTO 08003KT 3SM BR BKN002 M07/M08 A3012 RMK AO2 FZRANO TSNO
PABA 151852Z AUTO 11003KT 2SM BR BKN002 M07/M08 A3012 RMK AO2 SLP186 T10671078 FZRANO TSNO
PABA 151841Z AUTO 13003KT 2SM BR BKN002 M07/M08 A3012 RMK AO2 FZRANO TSNO
PABA 151831Z AUTO 13003KT 2 1/2SM BR BKN002 M07/M08 A3012 RMK AO2 FZRANO TSNO
PABA 151827Z AUTO 14003KT 2 1/2SM BR SCT002 M07/M08 A3012 RMK AO2 FZRANO TSNO
PABA 151819Z AUTO 12003KT 1 1/2SM BR SCT002 M07/M08 A3012 RMK AO2 FZRANO TSNO
PABA 151815Z AUTO 11004KT 2SM BR SCT002 M08/M08 A3012 RMK AO2 FZRANO TSNO
PABA 151807Z AUTO 10005KT 3SM BR FEW002 M08/M09 A3012 RMK AO2 FZRANO TSNO
PABA 151752Z AUTO 08005KT 2 1/2SM BR FEW002 M08/M09 A3012 RMK AO2 SLP186 60000 T10831094 11056 21106 51006 FZRANO TSNO
PABA 151749Z AUTO 08005KT 3SM BR FEW002 M09/M09 A3013 RMK AO2 FZRANO TSNO
PABA 151746Z AUTO 08005KT 3SM BR CLR M09/M09 A3013 RMK AO2 FZRANO TSNO
PABA 151736Z AUTO 08003KT 2 1/2SM BR CLR M09/M10 A3013 RMK AO2 FZRANO TSNO
PABA 151722Z AUTO 12003KT 3SM BR CLR M11/M12 A3013 RMK AO2 FZRANO TSNO
PABA 151709Z AUTO 17003KT 2SM BR FEW003 M11/M12 A3013 RMK AO2 FZRANO TSNO
PABA 151651Z AUTO 00000KT 3SM BR SCT003 M11/M12 A3012 RMK AO2 SLP186 T11061117 FZRANO TSNO
PABA 151650Z AUTO 00000KT 3SM BR SCT003 M11/M12 A3012 RMK AO2 FZRANO TSNO
PABA 151621Z AUTO 00000KT 2SM BR OVC003 M09/M11 A3012 RMK AO2 FZRANO TSNO
PABA 151555Z AUTO 00000KT 10SM BKN003 OVC012 M08/M09 A3012 RMK AO2 CIG 002V007 FZRANO TSNO
PABA 151551Z AUTO 15003KT 10SM SCT003 OVC014 M08/M09 A3012 RMK AO2 UPE10 SLP185 P0000 T10781089 FZRANO TSNO
PABA 151550Z AUTO 15004KT 10SM SCT003 BKN007 OVC014 M08/M08 A3012 RMK AO2 UPE10 CIG 006V009 P0000 FZRANO TSNO
PABA 151524Z AUTO 12007KT 4SM BR BKN003 M07/M07 A3012 RMK AO2 UPE10 P0000 FZRANO TSNO
PABA 151511Z AUTO 12009KT 2SM BR OVC003 M07/M07 A3011 RMK AO2 UPE10 P0000 FZRANO TSNO
PABA 151452Z AUTO 11009KT 1 1/4SM UP BR OVC003 M06/M07 A3011 RMK AO2 UPE14B31SNB21E31 SLP181 P0000 60000 T10611067 53003 FZRANO TSNO
PABA 151441Z AUTO 10009KT 1 3/4SM UP BR OVC003 M06/M06 A3011 RMK AO2 UPE14B31SNB21E31 P0000 FZRANO TSNO
PABA 151437Z AUTO 10010KT 2SM UP BR OVC003 M06/M06 A3010 RMK AO2 UPE14B31SNB21E31 P0000 FZRANO TSNO
PABA 151427Z AUTO 09009KT 1 3/4SM -SN BR OVC003 M06/M06 A3010 RMK AO2 UPE14SNB21 P0000 FZRANO TSNO
PABA 151423Z AUTO 09010KT 2SM -SN BR OVC003 M06/M06 A3010 RMK AO2 VIS 1 1/4V3 UPE14SNB21 P0000 FZRANO TSNO
PABA 151416Z AUTO 09009KT 3SM BR OVC003 M06/M06 A3010 RMK AO2 UPE14 P0000 FZRANO TSNO
PABA 151352Z AUTO 10009KT 2 1/2SM UP BR OVC003 M06/M06 A3010 RMK AO2 UPB47SNE14B35E47 SLP177 P0000 T10561061 FZRANO TSNO
PABA 151347Z AUTO 10008KT 2 1/2SM UP BR OVC003 M06/M06 A3010 RMK AO2 VIS 2V3 UPB47SNE14B35E47 P0000 FZRANO TSNO
PABA 151258Z AUTO 10008KT 3SM -SN BR OVC003 M06/M06 A3010 RMK AO2 P0000 FZRANO TSNO
PABA 151252Z AUTO 10007KT 2SM -SN BR OVC003 M06/M06 A3010 RMK AO2 UPB47E52SNE47B52 SLP178 P0000 T10561061 FZRANO TSNO
PABA 151223Z AUTO 11009KT 2SM -SN BR OVC003 M06/M06 A3010 RMK AO2 P0000 FZRANO TSNO
PABA 151201Z AUTO 11007KT 7SM -SN BKN003 OVC007 M06/M06 A3010 RMK AO2 P0000 FZRANO TSNO
PABA 151152Z AUTO 11008KT 8SM -SN OVC005 M06/M06 A3010 RMK AO2 UPE1056SNB1056 CIG 003V009 SLP178 P0000 60000 T10561061 11039 21056 53008 FZRANO TSNO
PABA 151148Z AUTO 11008KT 7SM -SN BKN005 M06/M06 A3010 RMK AO2 UPE1056SNB1056 CIG 003V009 P0000 FZRANO TSNO
PABA 151129Z AUTO 11008KT 6SM -SN BR BKN007 BKN032 M05/M06 A3010 RMK AO2 UPE1056SNB1056 CIG 004V009 P0000 FZRANO TSNO
PABA 151125Z AUTO 10010KT 6SM -SN BR SCT007 BKN026 BKN032 M05/M06 A3009 RMK AO2 UPE1056SNB1056 P0000 FZRANO TSNO
PABA 151052Z AUTO 11009KT 10SM UP OVC007 M05/M06 A3009 RMK AO2 UPB26SNE26 CIG 004V010 SLP175 P0000 T10501056 FZRANO TSNO
PABA 151001Z AUTO 10010KT 9SM -SN BKN009 BKN013 M04/M05 A3008 RMK AO2 CIG 008V012 P0000 FZRANO TSNO
PABA 150952Z AUTO 10010KT 9SM -SN BKN011 M04/M05 A3008 RMK AO2 SLP171 P0000 T10441050 FZRANO TSNO
PABA 150916Z AUTO 10009KT 8SM -SN BKN011 BKN015 OVC041 M04/M05 A3008 RMK AO2 CIG 007V011 P0000 FZRANO TSNO
PABA 150852Z AUTO 10010KT 7SM -SN BKN007 OVC021 M04/M04 A3007 RMK AO2 CIG 005V010 SLP169 P0000 60000 T10391044 410331044 53007 FZRANO TSNO
PABA 150836Z AUTO 09009KT 9SM -SN BKN007 BKN024 OVC055 M04/M04 A3007 RMK AO2 P0000 FZRANO TSNO
PABA 150831Z AUTO 09010KT 9SM -SN SCT005 BKN024 OVC055 M04/M04 A3007 RMK AO2 P0000 FZRANO TSNO
PABA 150814Z AUTO 10010KT 9SM -SN SCT007 SCT022 OVC060 M04/M04 A3007 RMK AO2 P0000 FZRANO TSNO
PABA 150807Z AUTO 09010KT 8SM -SN SCT007 BKN024 OVC060 M04/M04 A3006 RMK AO2 P0000 FZRANO TSNO
PABA 150800Z AUTO 08009KT 5SM -SN BR BKN007 BKN024 OVC028 M04/M05 A3006 RMK AO2 CIG 004V009 P0000 FZRANO TSNO
PABA 150752Z AUTO 08008KT 6SM -SN BR FEW007 BKN024 OVC030 M04/M05 A3006 RMK AO2 SLP166 P0000 T10391050 FZRANO TSNO
PABA 150717Z AUTO 10007KT 9SM -SN FEW008 BKN027 OVC043 M04/M05 A3006 RMK AO2 P0000 FZRANO TSNO
PABA 150711Z AUTO 09007KT 9SM -SN FEW008 BKN033 OVC045 M04/M05 A3006 RMK AO2 P0000 FZRANO TSNO
PABA 150652Z AUTO 08008KT 9SM -SN SCT027 BKN032 OVC047 M04/M05 A3006 RMK AO2 SLP164 P0000 T10391050 FZRANO TSNO
PABA 150626Z AUTO 08009KT 8SM -SN BKN028 OVC036 M04/M05 A3006 RMK AO2 P0000 FZRANO TSNO
PABA 150608Z AUTO 08009KT 5SM -SN BR SCT027 OVC035 M04/M05 A3005 RMK AO2 P0000 FZRANO TSNO
PABA 150552Z AUTO 08010KT 4SM -SN BR BKN028 OVC033 M04/M05 A3005 RMK AO2 SLP162 P0000 60000 T10391050 11039 21039 53008 FZRANO TSNO
PABA 150541Z AUTO 08009KT 5SM -SN BR BKN029 OVC037 M04/M05 A3006 RMK AO2 P0000 FZRANO TSNO
PABA 150452Z AUTO 08009KT 5SM -SN BR BKN033 OVC041 M04/M05 A3005 RMK AO2 SLP160 P0000 T10391050 FZRANO TSNO
PABA 150447Z AUTO 08009KT 5SM -SN BR FEW028 OVC038 M04/M05 A3005 RMK AO2 P0000 FZRANO TSNO
PABA 150420Z AUTO 08010KT 5SM -SN BR OVC028 M04/M04 A3004 RMK AO2 P0000 FZRANO TSNO
PABA 150352Z AUTO 08011KT 6SM -SN BR FEW025 OVC033 M04/M04 A3003 RMK AO2 SLP156 P0000 T10391044 FZRANO TSNO
PABA 150344Z AUTO 08010KT 7SM -SN FEW021 SCT028 OVC033 M04/M04 A3003 RMK AO2 P0000 FZRANO TSNO
PABA 150258Z AUTO 08010KT 6SM -SN BR SCT007 BKN026 OVC031 M04/M04 A3003 RMK AO2 P0000 FZRANO TSNO
PABA 150252Z AUTO 09009KT 6SM -SN BR SCT007 BKN013 OVC031 M04/M04 A3003 RMK AO2 SLP154 P0000 60000 T10391044 51009 FZRANO TSNO
PABA 150243Z AUTO 09009KT 4SM -SN BR SCT007 BKN013 OVC025 M04/M04 A3003 RMK AO2 P0000 FZRANO TSNO
PABA 150234Z AUTO 08005KT 2SM -SN BR SCT009 BKN013 OVC025 M04/M04 A3003 RMK AO2 P0000 FZRANO TSNO
PABA 150228Z AUTO 07004KT 1 1/4SM -SN BR BKN013 OVC025 M04/M04 A3003 RMK AO2 P0000 FZRANO TSNO
PABA 150223Z AUTO 07005KT 1 1/4SM -SN BR SCT013 BKN018 OVC025 M04/M04 A3002 RMK AO2 P0000 FZRANO TSNO
PABA 150212Z AUTO 06006KT 2SM -SN BR BKN020 OVC025 M04/M04 A3003 RMK AO2 P0000 FZRANO TSNO
PABA 150152Z AUTO 07005KT 1 3/4SM -SN BR BKN020 OVC026 M04/M04 A3002 RMK AO2 SLP152 P0000 T10391044 FZRANO TSNO
PABA 150138Z AUTO 08005KT 2SM -SN BR FEW009 OVC025 M04/M04 A3002 RMK AO2 P0000 FZRANO TSNO
PABA 150117Z AUTO 06006KT 1 1/2SM -SN BR FEW006 BKN020 OVC027 M04/M04 A3001 RMK AO2 VIS 1V3 P0000 FZRANO TSNO
PABA 150112Z AUTO 08005KT 2 1/2SM -SN BR FEW008 BKN022 OVC027 M04/M04 A3001 RMK AO2 VIS 1 1/4V4 P0000 FZRANO TSNO
PABA 150108Z AUTO 08005KT 3SM -SN BR FEW008 OVC025 M04/M04 A3001 RMK AO2 P0000 FZRANO TSNO
PABA 150056Z AUTO 06005KT 2 1/2SM -SN BR FEW006 SCT020 OVC025 M04/M04 A3001 RMK AO2 P0000 FZRANO TSNO
PABA 150052Z AUTO 08005KT 3SM -SN BR SCT020 OVC025 M04/M04 A3001 RMK AO2 SLP148 P0000 T10391044 FZRANO TSNO
PABA 150041Z AUTO 09005KT 3SM -SN BR SCT020 OVC025 M04/M04 A3001 RMK AO2 P0000 FZRANO TSNO
PABA 150037Z AUTO 09006KT 2SM -SN BR OVC023 M04/M04 A3001 RMK AO2 P0000 FZRANO TSNO
PABA 150025Z AUTO 07007KT 2 1/2SM -SN BR BKN019 OVC025 M04/M04 A3001 RMK AO2 P0000 FZRANO TSNO
PABA 150020Z AUTO 08006KT 3SM -SN BR BKN017 OVC025 M04/M04 A3001 RMK AO2 P0000 FZRANO TSNO
PABA 150015Z AUTO 09006KT 2SM -SN BR FEW009 BKN017 OVC025 M04/M04 A3001 RMK AO2 P0000 FZRANO TSNO